createdAt,value
2023-01-13T00:00:50.813Z,98361.36
2023-01-13T00:03:17.656Z,98365.67
2023-01-13T00:05:44.454Z,98360.23
2023-01-13T00:08:11.370Z,98353.17
2023-01-13T00:10:38.272Z,98354.56
2023-01-13T00:13:06.001Z,98351.73
2023-01-13T00:15:33.424Z,98346.59
2023-01-13T00:18:00.293Z,98344.45
2023-01-13T00:20:27.113Z,98341.69
2023-01-13T00:22:55.456Z,98342.21
2023-01-13T00:25:22.683Z,98340.92
2023-01-13T00:27:49.495Z,98341.30
2023-01-13T00:30:16.594Z,98340.98
2023-01-13T00:32:43.451Z,98338.38
2023-01-13T00:35:10.401Z,98343.68
2023-01-13T00:37:38.611Z,98344.58
2023-01-13T00:40:06.300Z,98344.90
2023-01-13T00:42:48.663Z,98350.55
2023-01-13T00:45:15.871Z,98351.48
2023-01-13T00:47:42.701Z,98348.45
2023-01-13T00:50:10.469Z,98347.80
2023-01-13T00:52:37.275Z,98347.21
2023-01-13T00:55:04.508Z,98347.11
2023-01-13T00:57:31.299Z,98343.89
2023-01-13T00:59:58.062Z,98343.65
2023-01-13T01:02:24.919Z,98341.57
2023-01-13T01:04:51.875Z,98339.90
2023-01-13T01:07:18.635Z,98336.45
2023-01-13T01:09:45.398Z,98332.80
2023-01-13T01:12:12.173Z,98331.35
2023-01-13T01:14:39.005Z,98328.73
2023-01-13T01:17:06.088Z,98321.53
2023-01-13T01:19:32.992Z,98320.66
2023-01-13T01:21:59.875Z,98320.98
2023-01-13T01:24:26.655Z,98318.77
2023-01-13T01:26:54.073Z,98314.20
2023-01-13T01:29:20.968Z,98313.00
2023-01-13T01:31:47.782Z,98310.27
2023-01-13T01:34:14.601Z,98314.86
2023-01-13T01:36:41.411Z,98306.30
2023-01-13T01:39:08.295Z,98301.59
2023-01-13T01:41:36.726Z,98299.42
2023-01-13T01:44:34.099Z,98292.98
2023-01-13T01:47:01.049Z,98286.92
2023-01-13T01:49:34.821Z,98283.85
2023-01-13T01:52:11.712Z,98284.06
2023-01-13T01:54:43.778Z,98280.33
2023-01-13T01:57:16.683Z,98273.56
2023-01-13T01:59:44.369Z,98271.39
2023-01-13T02:02:11.962Z,98269.39
2023-01-13T02:04:43.057Z,98265.79
2023-01-13T02:07:09.885Z,98267.90
2023-01-13T02:09:36.849Z,98267.83
2023-01-13T02:12:19.379Z,98269.02
2023-01-13T02:14:46.948Z,98269.76
2023-01-13T02:17:40.903Z,98266.81
2023-01-13T02:20:24.618Z,98268.98
2023-01-13T02:23:37.440Z,98267.52
2023-01-13T02:26:25.225Z,98265.21
2023-01-13T02:29:25.964Z,98258.98
2023-01-13T02:31:59.350Z,98256.98
2023-01-13T02:34:30.664Z,98254.08
2023-01-13T02:37:06.931Z,98250.73
2023-01-13T02:39:42.327Z,98245.27
2023-01-13T02:42:30.324Z,98242.88
2023-01-13T02:45:06.040Z,98238.33
2023-01-13T02:47:36.954Z,98234.37
2023-01-13T02:50:08.998Z,98233.16
2023-01-13T02:52:43.840Z,98230.76
2023-01-13T02:55:18.030Z,98221.61
2023-01-13T02:57:45.512Z,98224.48
2023-01-13T03:00:14.019Z,98224.20
2023-01-13T03:02:40.767Z,98219.73
2023-01-13T03:05:08.149Z,98223.17
2023-01-13T03:07:57.677Z,98221.86
2023-01-13T03:10:27.926Z,98221.58
2023-01-13T03:13:25.377Z,98219.64
2023-01-13T03:16:14.892Z,98216.36
2023-01-13T03:18:47.154Z,98219.58
2023-01-13T03:21:18.718Z,98216.48
2023-01-13T03:23:50.842Z,98210.85
2023-01-13T03:26:28.662Z,98209.02
2023-01-13T03:29:08.117Z,98207.34
2023-01-13T03:31:41.521Z,98201.23
2023-01-13T03:34:16.120Z,98200.63
2023-01-13T03:36:46.294Z,98200.48
2023-01-13T03:39:20.355Z,98195.88
2023-01-13T03:41:57.314Z,98201.63
2023-01-13T03:44:32.926Z,98199.89
2023-01-13T03:47:16.118Z,98207.64
2023-01-13T03:49:51.934Z,98204.02
2023-01-13T03:52:25.178Z,98205.12
2023-01-13T03:54:59.684Z,98200.34
2023-01-13T03:57:31.560Z,98201.08
2023-01-13T04:00:02.254Z,98203.55
2023-01-13T04:02:54.445Z,98204.84
2023-01-13T04:05:21.944Z,98202.27
2023-01-13T04:08:02.420Z,98204.82
2023-01-13T04:10:38.599Z,98207.08
2023-01-13T04:13:10.864Z,98205.38
2023-01-13T04:15:40.778Z,98206.88
2023-01-13T04:18:10.973Z,98207.52
2023-01-13T04:20:38.484Z,98206.63
2023-01-13T04:23:06.100Z,98201.80
2023-01-13T04:25:33.821Z,98197.83
2023-01-13T04:28:00.768Z,98200.07
2023-01-13T04:30:27.568Z,98198.64
2023-01-13T04:32:54.281Z,98202.53
2023-01-13T04:35:21.029Z,98200.02
2023-01-13T04:37:47.765Z,98203.02
2023-01-13T04:40:14.810Z,98205.84
2023-01-13T04:42:44.491Z,98200.08
2023-01-13T04:45:12.139Z,98205.52
2023-01-13T04:47:39.224Z,98207.77
2023-01-13T04:50:06.172Z,98203.85
2023-01-13T04:52:32.890Z,98201.86
2023-01-13T04:54:59.742Z,98203.55
2023-01-13T04:57:26.895Z,98210.36
2023-01-13T04:59:53.582Z,98211.83
2023-01-13T05:02:20.513Z,98204.96
2023-01-13T05:04:48.156Z,98198.01
2023-01-13T05:07:16.060Z,98201.61
2023-01-13T05:09:42.821Z,98196.06
2023-01-13T05:12:25.623Z,98197.02
2023-01-13T05:15:08.066Z,98199.92
2023-01-13T05:17:35.987Z,98200.57
2023-01-13T05:20:02.941Z,98201.27
2023-01-13T05:22:45.297Z,98205.31
2023-01-13T05:25:27.955Z,98204.38
2023-01-13T05:27:57.111Z,98206.02
2023-01-13T05:30:27.939Z,98206.17
2023-01-13T05:32:54.788Z,98203.58
2023-01-13T05:35:21.636Z,98205.42
2023-01-13T05:37:48.559Z,98208.60
2023-01-13T05:40:33.689Z,98210.55
2023-01-13T05:43:20.088Z,98209.48
2023-01-13T05:46:03.151Z,98213.27
2023-01-13T05:48:34.007Z,98216.30
2023-01-13T05:51:02.274Z,98213.29
2023-01-13T05:53:29.528Z,98213.48
2023-01-13T05:55:56.668Z,98209.89
2023-01-13T05:58:26.303Z,98205.81
2023-01-13T06:00:53.367Z,98208.33
2023-01-13T06:03:20.563Z,98210.13
2023-01-13T06:05:48.243Z,98209.00
2023-01-13T06:08:15.416Z,98213.19
2023-01-13T06:10:42.159Z,98216.27
2023-01-13T06:13:08.937Z,98215.48
2023-01-13T06:15:36.013Z,98210.70
2023-01-13T06:18:04.773Z,98204.73
2023-01-13T06:20:32.126Z,98210.64
2023-01-13T06:22:59.837Z,98209.44
2023-01-13T06:25:57.266Z,98208.20
2023-01-13T06:28:24.250Z,98213.23
2023-01-13T06:30:55.319Z,98210.77
2023-01-13T06:33:29.117Z,98220.89
2023-01-13T06:36:01.649Z,98221.56
2023-01-13T06:38:30.157Z,98215.84
2023-01-13T06:40:57.102Z,98214.59
2023-01-13T06:43:23.942Z,98219.73
2023-01-13T06:45:54.475Z,98215.04
2023-01-13T06:48:25.542Z,98216.50
2023-01-13T06:50:52.319Z,98217.66
2023-01-13T06:53:19.873Z,98220.40
2023-01-13T06:55:46.960Z,98218.80
2023-01-13T06:58:13.851Z,98216.00
2023-01-13T07:00:40.768Z,98219.92
2023-01-13T07:03:08.578Z,98218.03
2023-01-13T07:05:35.286Z,98217.00
2023-01-13T07:08:02.343Z,98216.86
2023-01-13T07:10:30.311Z,98217.96
2023-01-13T07:13:16.032Z,98213.13
2023-01-13T07:15:42.747Z,98219.86
2023-01-13T07:18:09.518Z,98213.04
2023-01-13T07:20:36.235Z,98214.60
2023-01-13T07:23:03.118Z,98213.50
2023-01-13T07:25:30.014Z,98213.36
2023-01-13T07:27:57.530Z,98216.05
2023-01-13T07:30:24.241Z,98218.21
2023-01-13T07:32:50.955Z,98212.48
2023-01-13T07:35:21.818Z,98212.14
2023-01-13T07:37:48.738Z,98211.21
2023-01-13T07:40:16.996Z,98210.84
2023-01-13T07:42:59.143Z,98212.41
2023-01-13T07:45:29.175Z,98212.75
2023-01-13T07:47:56.041Z,98213.48
2023-01-13T07:50:23.975Z,98210.05
2023-01-13T07:52:51.135Z,98204.41
2023-01-13T07:55:17.963Z,98204.06
2023-01-13T07:57:44.765Z,98201.87
2023-01-13T08:00:13.029Z,98201.96
2023-01-13T08:02:40.622Z,98210.66
2023-01-13T08:05:08.112Z,98213.29
2023-01-13T08:07:35.730Z,98209.46
2023-01-13T08:10:04.093Z,98210.55
2023-01-13T08:12:56.876Z,98210.77
2023-01-13T08:15:24.100Z,98211.46
2023-01-13T08:17:50.868Z,98200.04
2023-01-13T08:20:17.793Z,98196.88
2023-01-13T08:22:44.583Z,98197.83
2023-01-13T08:25:11.334Z,98197.42
2023-01-13T08:27:38.321Z,98206.54
2023-01-13T08:30:05.928Z,98211.14
2023-01-13T08:32:32.705Z,98206.66
2023-01-13T08:34:59.403Z,98206.23
2023-01-13T08:37:26.151Z,98203.13
2023-01-13T08:39:52.857Z,98207.98
2023-01-13T08:42:19.745Z,98212.61
2023-01-13T08:44:46.536Z,98211.59
2023-01-13T08:47:14.588Z,98214.88
2023-01-13T08:49:41.386Z,98219.14
2023-01-13T08:52:08.246Z,98221.45
2023-01-13T08:54:35.183Z,98223.18
2023-01-13T08:57:03.391Z,98224.98
2023-01-13T08:59:30.336Z,98226.39
2023-01-13T09:01:57.327Z,98225.16
2023-01-13T09:04:27.619Z,98224.86
2023-01-13T09:06:55.483Z,98226.18
2023-01-13T09:09:23.940Z,98223.16
2023-01-13T09:12:06.739Z,98223.77
2023-01-13T09:14:36.484Z,98226.64
2023-01-13T09:17:04.013Z,98225.73
2023-01-13T09:19:30.817Z,98221.36
2023-01-13T09:21:57.944Z,98216.50
2023-01-13T09:24:25.542Z,98212.27
2023-01-13T09:26:52.930Z,98209.91
2023-01-13T09:29:20.585Z,98207.67
2023-01-13T09:31:47.697Z,98200.63
2023-01-13T09:34:32.789Z,98198.35
2023-01-13T09:37:00.175Z,98195.09
2023-01-13T09:39:26.958Z,98194.58
2023-01-13T09:42:12.540Z,98193.39
2023-01-13T09:44:58.580Z,98196.41
2023-01-13T09:47:41.322Z,98196.10
2023-01-13T09:50:15.530Z,98193.15
2023-01-13T09:52:43.219Z,98189.38
2023-01-13T09:55:14.323Z,98187.48
2023-01-13T09:57:41.233Z,98186.90
2023-01-13T10:00:14.220Z,98184.98
2023-01-13T10:02:52.617Z,98183.30
2023-01-13T10:05:36.796Z,98183.97
2023-01-13T10:08:11.560Z,98180.86
2023-01-13T10:10:49.061Z,98174.74
2023-01-13T10:13:22.324Z,98165.77
2023-01-13T10:15:57.067Z,98163.18
2023-01-13T10:18:59.684Z,98164.21
2023-01-13T10:21:45.292Z,98162.41
2023-01-13T10:24:25.484Z,98165.79
2023-01-13T10:27:05.283Z,98160.61
2023-01-13T10:29:32.750Z,98163.08
2023-01-13T10:32:00.478Z,98156.65
2023-01-13T10:34:28.589Z,98151.52
2023-01-13T10:36:59.547Z,98152.96
2023-01-13T10:39:26.483Z,98151.18
2023-01-13T10:42:03.032Z,98147.10
2023-01-13T10:44:30.062Z,98139.98
2023-01-13T10:46:59.373Z,98137.73
2023-01-13T10:49:32.978Z,98135.38
2023-01-13T10:52:02.106Z,98131.15
2023-01-13T10:54:29.909Z,98134.86
2023-01-13T10:57:13.265Z,98136.35
2023-01-13T10:59:39.996Z,98130.20
2023-01-13T11:02:26.274Z,98129.13
2023-01-13T11:04:53.740Z,98127.98
2023-01-13T11:07:23.927Z,98131.43
2023-01-13T11:10:10.701Z,98129.70
2023-01-13T11:13:03.716Z,98129.16
2023-01-13T11:15:43.367Z,98128.15
2023-01-13T11:18:19.419Z,98122.43
2023-01-13T11:20:49.557Z,98126.50
2023-01-13T11:23:43.473Z,98122.36
2023-01-13T11:26:29.816Z,98115.09
2023-01-13T11:29:32.052Z,98105.27
2023-01-13T11:32:10.577Z,98105.92
2023-01-13T11:34:40.487Z,98103.59
2023-01-13T11:37:20.546Z,98098.23
2023-01-13T11:39:48.495Z,98102.00
2023-01-13T11:42:27.881Z,98096.11
2023-01-13T11:45:02.031Z,98089.67
2023-01-13T11:47:29.396Z,98094.73
2023-01-13T11:49:56.592Z,98095.27
2023-01-13T11:52:30.750Z,98094.50
2023-01-13T11:55:22.669Z,98098.83
2023-01-13T11:58:05.365Z,98093.07
2023-01-13T12:00:51.012Z,98087.48
2023-01-13T12:03:38.434Z,98089.83
2023-01-13T12:06:24.999Z,98091.01
2023-01-13T12:09:11.914Z,98092.12
2023-01-13T12:12:01.791Z,98091.30
2023-01-13T12:14:49.365Z,98090.85
2023-01-13T12:17:30.292Z,98087.85
2023-01-13T12:19:57.270Z,98084.58
2023-01-13T12:22:30.031Z,98082.98
2023-01-13T12:25:07.247Z,98075.74
2023-01-13T12:27:57.629Z,98079.98
2023-01-13T12:30:29.708Z,98082.57
2023-01-13T12:33:03.844Z,98085.06
2023-01-13T12:35:41.555Z,98086.10
2023-01-13T12:38:19.460Z,98086.91
2023-01-13T12:41:01.819Z,98086.52
2023-01-13T12:43:45.643Z,98084.60
2023-01-13T12:46:19.719Z,98086.15
2023-01-13T12:48:46.459Z,98086.52
2023-01-13T12:51:22.321Z,98089.73
2023-01-13T12:53:49.112Z,98092.11
2023-01-13T12:56:31.481Z,98099.41
2023-01-13T12:59:19.380Z,98095.54
2023-01-13T13:01:49.346Z,98099.73
2023-01-13T13:04:20.672Z,98108.20
2023-01-13T13:07:07.749Z,98105.14
2023-01-13T13:09:44.642Z,98108.67
2023-01-13T13:12:57.465Z,98107.63
2023-01-13T13:15:27.896Z,98110.38
2023-01-13T13:18:08.663Z,98113.75
2023-01-13T13:20:54.295Z,98110.76
2023-01-13T13:23:29.461Z,98115.85
2023-01-13T13:26:03.433Z,98121.36
2023-01-13T13:28:38.152Z,98121.30
2023-01-13T13:31:24.834Z,98124.23
2023-01-13T13:34:00.585Z,98119.38
2023-01-13T13:36:30.636Z,98117.68
2023-01-13T13:39:32.316Z,98119.35
2023-01-13T13:42:26.916Z,98115.60
2023-01-13T13:45:10.187Z,98114.16
2023-01-13T13:47:38.559Z,98113.15
2023-01-13T13:50:11.985Z,98109.73
2023-01-13T13:52:51.521Z,98112.85
2023-01-13T13:55:22.132Z,98113.59
2023-01-13T13:57:51.768Z,98120.87
2023-01-13T14:00:27.476Z,98122.55
2023-01-13T14:02:58.952Z,98124.88
2023-01-13T14:05:29.891Z,98124.60
2023-01-13T14:08:19.277Z,98126.82
2023-01-13T14:10:46.668Z,98126.48
2023-01-13T14:13:19.978Z,98124.45
2023-01-13T14:15:49.421Z,98124.36
2023-01-13T14:18:19.642Z,98118.88
2023-01-13T14:20:58.324Z,98123.55
2023-01-13T14:23:34.772Z,98120.98
2023-01-13T14:26:08.718Z,98123.45
2023-01-13T14:28:40.343Z,98122.88
2023-01-13T14:31:09.491Z,98122.50
2023-01-13T14:33:39.288Z,98121.14
2023-01-13T14:36:13.749Z,98116.52
2023-01-13T14:38:41.887Z,98113.48
2023-01-13T14:41:11.589Z,98112.13
2023-01-13T14:43:44.372Z,98109.02
2023-01-13T14:46:11.897Z,98110.83
2023-01-13T14:48:41.021Z,98106.33
2023-01-13T14:51:11.581Z,98111.58
2023-01-13T14:53:43.330Z,98114.84
2023-01-13T14:56:40.879Z,98115.38
2023-01-13T14:59:38.409Z,98110.85
2023-01-13T15:02:36.223Z,98113.52
2023-01-13T15:05:19.703Z,98114.70
2023-01-13T15:08:04.676Z,98117.51
2023-01-13T15:10:35.003Z,98117.83
2023-01-13T15:13:05.104Z,98121.15
2023-01-13T15:15:34.995Z,98127.07
2023-01-13T15:18:08.103Z,98131.86
2023-01-13T15:20:34.839Z,98134.70
2023-01-13T15:23:01.563Z,98136.27
2023-01-13T15:25:32.922Z,98137.14
2023-01-13T15:27:59.737Z,98138.90
2023-01-13T15:30:27.468Z,98140.20
2023-01-13T15:32:56.911Z,98142.35
2023-01-13T15:35:26.855Z,98145.58
2023-01-13T15:37:56.135Z,98146.08
2023-01-13T15:40:29.999Z,98146.70
2023-01-13T15:43:12.660Z,98149.10
2023-01-13T15:45:56.045Z,98149.69
2023-01-13T15:48:25.757Z,98152.48
2023-01-13T15:50:52.466Z,98151.71
2023-01-13T15:53:20.105Z,98158.88
2023-01-13T15:55:52.292Z,98162.52
2023-01-13T15:58:21.521Z,98157.98
2023-01-13T16:00:48.316Z,98168.41
2023-01-13T16:03:16.096Z,98170.33
2023-01-13T16:05:44.606Z,98172.57
2023-01-13T16:08:15.675Z,98165.52
2023-01-13T16:10:43.514Z,98170.19
2023-01-13T16:13:11.188Z,98173.96
2023-01-13T16:15:43.421Z,98176.47
2023-01-13T16:18:17.245Z,98171.33
2023-01-13T16:20:44.273Z,98174.02
2023-01-13T16:23:12.280Z,98177.02
2023-01-13T16:25:40.562Z,98182.29
2023-01-13T16:28:07.354Z,98174.14
2023-01-13T16:30:37.018Z,98176.84
2023-01-13T16:33:04.133Z,98178.77
2023-01-13T16:35:32.352Z,98174.47
2023-01-13T16:37:59.950Z,98173.83
2023-01-13T16:40:31.329Z,98174.85
2023-01-13T16:42:58.291Z,98175.86
2023-01-13T16:45:25.231Z,98177.28
2023-01-13T16:47:52.467Z,98176.59
2023-01-13T16:50:23.538Z,98176.13
2023-01-13T16:52:50.298Z,98178.42
2023-01-13T16:55:16.994Z,98178.79
2023-01-13T16:57:43.794Z,98173.63
2023-01-13T17:00:12.612Z,98184.77
2023-01-13T17:02:39.308Z,98184.35
2023-01-13T17:05:06.894Z,98182.59
2023-01-13T17:07:33.734Z,98184.63
2023-01-13T17:10:00.556Z,98185.47
2023-01-13T17:12:27.287Z,98185.67
2023-01-13T17:14:54.015Z,98186.02
2023-01-13T17:17:23.298Z,98184.80
2023-01-13T17:19:50.700Z,98186.08
2023-01-13T17:22:18.373Z,98176.46
2023-01-13T17:25:00.838Z,98179.95
2023-01-13T17:27:27.642Z,98178.89
2023-01-13T17:29:54.807Z,98182.80
2023-01-13T17:32:23.068Z,98177.13
2023-01-13T17:34:51.012Z,98175.91
2023-01-13T17:37:18.114Z,98182.11
2023-01-13T17:39:46.528Z,98187.20
2023-01-13T17:42:14.084Z,98187.85
2023-01-13T17:44:41.172Z,98189.98
2023-01-13T17:47:08.804Z,98190.38
2023-01-13T17:49:35.635Z,98190.67
2023-01-13T17:52:02.439Z,98190.88
2023-01-13T17:54:29.251Z,98197.08
2023-01-13T17:56:56.619Z,98206.60
2023-01-13T17:59:24.494Z,98210.20
2023-01-13T18:01:52.434Z,98213.63
2023-01-13T18:04:23.596Z,98210.21
2023-01-13T18:06:50.583Z,98213.77
2023-01-13T18:09:17.954Z,98210.98
2023-01-13T18:11:46.526Z,98207.91
2023-01-13T18:14:13.970Z,98208.98
2023-01-13T18:16:40.843Z,98201.73
2023-01-13T18:19:23.269Z,98200.88
2023-01-13T18:22:05.857Z,98205.11
2023-01-13T18:24:48.409Z,98216.36
2023-01-13T18:27:22.490Z,98216.75
2023-01-13T18:29:51.730Z,98223.98
2023-01-13T18:32:19.655Z,98224.80
2023-01-13T18:34:47.939Z,98227.70
2023-01-13T18:37:16.852Z,98228.31
2023-01-13T18:39:44.611Z,98229.02
2023-01-13T18:42:27.282Z,98234.03
2023-01-13T18:44:57.025Z,98238.21
2023-01-13T18:47:25.187Z,98253.58
2023-01-13T18:49:52.772Z,98258.14
2023-01-13T18:52:19.664Z,98268.24
2023-01-13T18:54:46.418Z,98269.18
2023-01-13T18:57:13.966Z,98270.71
2023-01-13T18:59:57.643Z,98275.84
2023-01-13T19:02:26.722Z,98279.66
2023-01-13T19:04:53.976Z,98284.39
2023-01-13T19:07:27.045Z,98290.58
2023-01-13T19:09:55.917Z,98293.28
2023-01-13T19:12:26.367Z,98295.47
2023-01-13T19:14:54.765Z,98297.67
2023-01-13T19:17:23.002Z,98300.79
2023-01-13T19:19:52.761Z,98298.13
2023-01-13T19:22:23.509Z,98300.59
2023-01-13T19:24:50.664Z,98309.02
2023-01-13T19:27:18.863Z,98316.11
2023-01-13T19:29:52.125Z,98314.66
2023-01-13T19:32:21.955Z,98316.23
2023-01-13T19:34:51.247Z,98321.19
2023-01-13T19:37:19.263Z,98320.83
2023-01-13T19:39:46.149Z,98323.91
2023-01-13T19:42:28.716Z,98326.05
2023-01-13T19:45:11.281Z,98324.83
2023-01-13T19:47:38.915Z,98325.45
2023-01-13T19:50:08.032Z,98328.39
2023-01-13T19:52:34.952Z,98332.36
2023-01-13T19:55:17.655Z,98335.56
2023-01-13T19:57:44.488Z,98337.63
2023-01-13T20:00:26.704Z,98343.00
2023-01-13T20:02:56.219Z,98344.72
2023-01-13T20:05:25.880Z,98347.48
2023-01-13T20:07:53.398Z,98350.02
2023-01-13T20:10:22.403Z,98350.02
2023-01-13T20:12:49.191Z,98348.48
2023-01-13T20:15:16.331Z,98353.94
2023-01-13T20:17:43.089Z,98367.74
2023-01-13T20:20:10.812Z,98363.91
2023-01-13T20:22:39.853Z,98367.20
2023-01-13T20:25:07.708Z,98371.85
2023-01-13T20:27:35.065Z,98370.52
2023-01-13T20:30:02.097Z,98372.83
2023-01-13T20:32:28.989Z,98371.36
2023-01-13T20:35:11.932Z,98374.64
2023-01-13T20:37:40.351Z,98369.79
2023-01-13T20:40:08.728Z,98365.88
2023-01-13T20:42:45.076Z,98362.34
2023-01-13T20:45:17.814Z,98371.06
2023-01-13T20:47:45.628Z,98373.27
2023-01-13T20:50:13.150Z,98367.50
2023-01-13T20:52:40.242Z,98366.04
2023-01-13T20:55:10.327Z,98369.86
2023-01-13T20:57:37.105Z,98374.61
2023-01-13T21:00:05.463Z,98377.73
2023-01-13T21:02:32.488Z,98382.45
2023-01-13T21:04:59.303Z,98385.17
2023-01-13T21:07:26.023Z,98391.61
2023-01-13T21:09:52.799Z,98395.60
2023-01-13T21:12:34.872Z,98395.08
2023-01-13T21:15:17.827Z,98395.54
2023-01-13T21:18:01.063Z,98396.08
2023-01-13T21:20:30.671Z,98397.64
2023-01-13T21:22:57.509Z,98400.04
2023-01-13T21:25:24.623Z,98400.50
2023-01-13T21:27:53.686Z,98409.13
2023-01-13T21:30:20.615Z,98413.50
2023-01-13T21:32:47.537Z,98417.61
2023-01-13T21:35:15.190Z,98418.46
2023-01-13T21:37:43.783Z,98417.55
2023-01-13T21:40:15.684Z,98419.00
2023-01-13T21:42:58.120Z,98422.51
2023-01-13T21:45:40.364Z,98424.77
2023-01-13T21:48:07.275Z,98427.48
2023-01-13T21:50:34.407Z,98432.60
2023-01-13T21:53:01.360Z,98434.42
2023-01-13T21:55:28.837Z,98434.46
2023-01-13T21:57:59.633Z,98429.88
2023-01-13T22:00:29.829Z,98431.61
2023-01-13T22:02:58.425Z,98434.09
2023-01-13T22:05:26.238Z,98434.44
2023-01-13T22:07:53.607Z,98435.96
2023-01-13T22:10:22.972Z,98439.61
2023-01-13T22:12:54.048Z,98435.27
2023-01-13T22:15:22.312Z,98435.46
2023-01-13T22:17:52.305Z,98435.83
2023-01-13T22:20:20.006Z,98438.73
2023-01-13T22:22:47.295Z,98440.59
2023-01-13T22:25:16.655Z,98442.45
2023-01-13T22:27:44.800Z,98446.01
2023-01-13T22:30:15.880Z,98446.53
2023-01-13T22:32:42.623Z,98449.14
2023-01-13T22:35:11.547Z,98448.95
2023-01-13T22:37:39.020Z,98445.92
2023-01-13T22:40:07.713Z,98446.73
2023-01-13T22:42:40.602Z,98454.64
2023-01-13T22:45:11.196Z,98458.38
2023-01-13T22:47:38.145Z,98461.73
2023-01-13T22:50:05.988Z,98460.92
2023-01-13T22:52:35.102Z,98462.69
2023-01-13T22:55:02.018Z,98460.90
2023-01-13T22:57:35.995Z,98464.98
2023-01-13T23:00:10.757Z,98461.03
2023-01-13T23:02:38.660Z,98460.14
2023-01-13T23:05:05.997Z,98459.08
2023-01-13T23:07:32.711Z,98463.13
2023-01-13T23:09:59.965Z,98462.52
2023-01-13T23:12:26.816Z,98468.27
2023-01-13T23:14:54.691Z,98481.04
2023-01-13T23:17:21.395Z,98473.52
2023-01-13T23:19:48.136Z,98466.73
2023-01-13T23:22:15.666Z,98481.05
2023-01-13T23:24:42.358Z,98477.25
2023-01-13T23:27:09.110Z,98481.61
2023-01-13T23:29:35.957Z,98478.05
2023-01-13T23:32:02.872Z,98488.34
2023-01-13T23:34:29.628Z,98487.58
2023-01-13T23:36:56.473Z,98488.47
2023-01-13T23:39:24.561Z,98488.30
2023-01-13T23:41:51.287Z,98490.01
2023-01-13T23:44:18.086Z,98490.77
2023-01-13T23:46:44.831Z,98490.52
2023-01-13T23:49:11.583Z,98493.02
2023-01-13T23:51:38.326Z,98492.55
2023-01-13T23:54:05.265Z,98493.42
2023-01-13T23:56:32.147Z,98492.36
2023-01-13T23:58:59.152Z,98494.31
